Time;durP1;ratioP1;P1;durP2;ratioP2;P2;SDS_P1;SDS_P2;PMS_P1;PMS_P2;Temp;Humidity;BMP_temperature;BMP_pressure;BME280_temperature;BME280_humidity;BME280_pressure;Samples;Min_cycle;Max_cycle;Signal;HPM_P1;HPM_P2
2022/04/23 00:02:06;;;;;;;;;;;;;;;9.88;69.06;99875.02;124899;1099;102790;-78
2022/04/23 00:04:36;;;;;;;;;;;;;;;9.85;69.80;99875.81;124908;1099;104153;-77
2022/04/23 00:07:06;;;;;;;;;;;;;;;9.82;69.14;99867.86;124914;1097;104169;-77
2022/04/23 00:09:37;;;;;;;;;;;;;;;9.82;68.84;99872.23;124888;1099;104249;-77
2022/04/23 00:12:08;;;;;;;;;;;;;;;9.82;68.79;99874.84;124939;1099;102771;-77
2022/04/23 00:14:38;;;;;;;;;;;;;;;9.81;69.35;99870.44;124894;1099;104156;-77
2022/04/23 00:17:10;;;;;;;;;;;;;;;9.79;68.93;99867.78;124902;1099;101947;-77
2022/04/23 00:19:41;;;;;;;;;;;;;;;9.77;69.06;99863.33;124882;1099;102343;-76
2022/04/23 00:22:11;;;;;;;;;;;;;;;9.75;69.81;99867.64;124839;1099;104166;-75
2022/04/23 00:24:41;;;;;;;;;;;;;;;9.70;69.92;99855.28;124878;1099;104172;-75
2022/04/23 00:27:13;;;;;;;;;;;;;;;9.66;69.41;99857.77;124956;1097;104235;-76
2022/04/23 00:29:43;;;;;;;;;;;;;;;9.64;69.00;99854.23;124896;1099;104281;-75
2022/04/23 00:32:14;;;;;;;;;;;;;;;9.62;69.88;99845.45;124969;1099;104207;-76
2022/04/23 00:34:44;;;;;;;;;;;;;;;9.61;69.36;99835.80;124908;1099;104223;-76
2022/04/23 00:37:14;;;;;;;;;;;;;;;9.59;70.11;99835.77;124785;1099;104243;-75
2022/04/23 00:39:44;;;;;;;;;;;;;;;9.58;69.76;99828.73;124908;1099;104235;-75
2022/04/23 00:42:14;;;;;;;;;;;;;;;9.57;69.55;99831.31;124852;1099;102557;-76
2022/04/23 00:44:44;;;;;;;;;;;;;;;9.53;69.62;99832.97;124905;1099;104217;-76
2022/04/23 00:47:14;;;;;;;;;;;;;;;9.52;69.42;99834.70;124851;1099;104179;-75
2022/04/23 00:49:44;;;;;;;;;;;;;;;9.48;69.77;99840.69;124914;1099;102762;-75
2022/04/23 00:52:14;;;;;;;;;;;;;;;9.47;70.16;99824.92;124990;1099;104169;-75
2022/04/23 00:54:45;;;;;;;;;;;;;;;9.46;70.00;99825.80;124872;1098;104156;-76
2022/04/23 00:57:16;;;;;;;;;;;;;;;9.45;69.76;99837.09;124856;1099;104210;-76
2022/04/23 00:59:47;;;;;;;;;;;;;;;9.44;69.46;99837.93;125002;1099;104264;-76
2022/04/23 01:02:16;;;;;;;;;;;;;;;9.42;70.61;99837.01;124900;1099;104169;-76
2022/04/23 01:04:47;;;;;;;;;;;;;;;9.39;69.62;99840.41;124898;1099;104195;-76
2022/04/23 01:07:17;;;;;;;;;;;;;;;9.39;69.86;99842.16;124807;1099;104160;-75
2022/04/23 01:09:47;;;;;;;;;;;;;;;9.39;70.38;99842.16;124850;1099;104163;-76
2022/04/23 01:12:18;;;;;;;;;;;;;;;9.35;70.16;99831.59;124848;1099;104236;-75
2022/04/23 01:14:58;;;;;;;;;;;;;;;9.33;70.05;99833.28;124909;1097;102830;-75
2022/04/23 01:17:28;;;;;;;;;;;;;;;9.31;69.90;99834.94;124895;1099;102709;-77
2022/04/23 01:19:58;;;;;;;;;;;;;;;9.27;71.07;99822.62;124884;1099;104268;-77
2022/04/23 01:22:29;;;;;;;;;;;;;;;9.24;71.27;99822.53;124861;1099;104175;-76
2022/04/23 01:25:00;;;;;;;;;;;;;;;9.22;70.95;99816.34;124944;1098;102286;-78
2022/04/23 01:27:31;;;;;;;;;;;;;;;9.20;71.28;99814.54;124972;1099;104357;-78
2022/04/23 01:30:01;;;;;;;;;;;;;;;9.20;70.74;99810.17;124819;1099;104693;-78
2022/04/23 01:32:32;;;;;;;;;;;;;;;9.17;70.47;99812.70;124807;1099;104191;-77
2022/04/23 01:35:03;;;;;;;;;;;;;;;9.16;70.17;99809.21;124801;1099;104217;-77
2022/04/23 01:37:32;;;;;;;;;;;;;;;9.16;71.29;99798.73;124981;1099;102791;-77
2022/04/23 01:40:02;;;;;;;;;;;;;;;9.15;71.23;99804.80;124904;1098;104284;-77
2022/04/23 01:42:33;;;;;;;;;;;;;;;9.14;70.71;99802.14;124912;1099;102998;-77
2022/04/23 01:45:03;;;;;;;;;;;;;;;9.14;70.37;99800.41;124880;1099;104277;-76
2022/04/23 01:47:33;;;;;;;;;;;;;;;9.12;71.66;99795.98;124899;1099;104363;-77
2022/04/23 01:50:03;;;;;;;;;;;;;;;9.12;71.15;99801.22;124922;1099;104188;-78
2022/04/23 01:52:33;;;;;;;;;;;;;;;9.09;71.53;99796.77;124867;1099;102787;-77
2022/04/23 01:55:04;;;;;;;;;;;;;;;9.07;71.10;99798.45;124866;1099;104345;-78
2022/04/23 01:57:34;;;;;;;;;;;;;;;9.06;71.40;99807.14;124857;1099;102219;-77
2022/04/23 02:00:05;;;;;;;;;;;;;;;9.06;71.83;99801.03;124850;1099;104564;-77
2022/04/23 02:02:42;;;;;;;;;;;;;;;9.03;71.79;99795.70;124830;1098;104280;-78
2022/04/23 02:05:13;;;;;;;;;;;;;;;8.99;72.43;99792.99;124896;1099;102361;-75
2022/04/23 02:07:43;;;;;;;;;;;;;;;8.98;72.30;99792.94;124933;1099;104258;-77
2022/04/23 02:10:13;;;;;;;;;;;;;;;8.96;71.65;99784.13;124888;1099;104172;-77
2022/04/23 02:12:45;;;;;;;;;;;;;;;8.94;72.90;99785.83;124808;1099;104223;-76
2022/04/23 02:15:16;;;;;;;;;;;;;;;8.92;73.06;99783.16;124975;1099;104166;-77
2022/04/23 02:17:47;;;;;;;;;;;;;;;8.92;72.33;99782.28;124899;1099;104317;-79
2022/04/23 02:20:17;;;;;;;;;;;;;;;8.91;72.68;99778.80;124932;1099;102981;-77
2022/04/23 02:22:47;;;;;;;;;;;;;;;8.90;72.16;99778.75;124915;1099;102845;-78
2022/04/23 02:25:19;;;;;;;;;;;;;;;8.86;74.25;99769.02;124968;1099;104272;-77
2022/04/23 02:27:50;;;;;;;;;;;;;;;8.85;72.30;99781.22;124961;1099;102069;-77
2022/04/23 02:30:20;;;;;;;;;;;;;;;8.84;73.82;99766.35;124890;1099;102259;-76
2022/04/23 02:32:50;;;;;;;;;;;;;;;8.81;74.30;99764.52;124939;1099;102951;-76
2022/04/23 02:35:20;;;;;;;;;;;;;;;8.80;73.63;99769.70;124850;1099;104207;-75
2022/04/23 02:37:53;;;;;;;;;;;;;;;8.77;74.29;99770.52;124937;1099;102781;-76
2022/04/23 02:40:23;;;;;;;;;;;;;;;8.77;73.61;99766.98;124916;1099;111411;-76
2022/04/23 02:42:53;;;;;;;;;;;;;;;8.77;73.46;99759.14;124937;1099;104195;-75
2022/04/23 02:45:25;;;;;;;;;;;;;;;8.75;74.05;99759.09;124915;1099;102926;-75
2022/04/23 02:47:55;;;;;;;;;;;;;;;8.72;73.91;99751.15;124898;1099;104191;-76
2022/04/23 02:50:29;;;;;;;;;;;;;;;8.73;73.98;99754.67;124985;1099;102812;-75
2022/04/23 02:52:59;;;;;;;;;;;;;;;8.71;73.41;99748.48;124981;1098;104169;-76
2022/04/23 02:55:31;;;;;;;;;;;;;;;8.69;73.99;99739.72;124928;1098;104268;-75
2022/04/23 02:58:04;;;;;;;;;;;;;;;8.68;74.29;99738.84;124977;1098;104176;-76
2022/04/23 03:00:38;;;;;;;;;;;;;;;8.66;74.83;99731.77;124836;1099;104217;-76
2022/04/23 03:03:09;;;;;;;;;;;;;;;8.66;74.44;99742.23;124891;1098;104214;-75
2022/04/23 03:05:42;;;;;;;;;;;;;;;8.67;75.12;99736.17;125053;1099;101863;-75
2022/04/23 03:08:12;;;;;;;;;;;;;;;8.67;75.20;99744.02;125014;1099;103597;-76
2022/04/23 03:10:43;;;;;;;;;;;;;;;8.66;74.19;99739.62;125064;1099;103714;-77
2022/04/23 03:13:15;;;;;;;;;;;;;;;8.66;73.83;99745.73;124983;1099;104241;-78
2022/04/23 03:15:46;;;;;;;;;;;;;;;8.67;74.05;99739.66;124983;1098;102636;-76
2022/04/23 03:18:15;;;;;;;;;;;;;;;8.68;75.53;99745.77;124995;1099;104217;-77
2022/04/23 03:20:45;;;;;;;;;;;;;;;8.68;75.15;99743.16;125036;1099;104226;-77
2022/04/23 03:23:15;;;;;;;;;;;;;;;8.68;74.09;99740.55;124975;1099;102570;-76
2022/04/23 03:25:45;;;;;;;;;;;;;;;8.69;74.13;99739.72;124817;1099;104255;-78
2022/04/23 03:28:16;;;;;;;;;;;;;;;8.72;74.48;99745.05;124983;1099;102249;-77
2022/04/23 03:30:47;;;;;;;;;;;;;;;8.75;74.26;99750.37;124831;1099;105547;-76
2022/04/23 03:33:17;;;;;;;;;;;;;;;8.76;74.16;99754.77;124880;1098;104233;-78
2022/04/23 03:35:47;;;;;;;;;;;;;;;8.76;74.10;99745.19;124956;1099;104312;-76
2022/04/23 03:38:18;;;;;;;;;;;;;;;8.76;75.35;99750.42;124821;1099;104179;-76
2022/04/23 03:40:53;;;;;;;;;;;;;;;8.78;73.67;99748.72;124953;1099;104175;-76
2022/04/23 03:43:24;;;;;;;;;;;;;;;8.80;75.19;99747.06;124873;1099;102819;-76
2022/04/23 03:45:54;;;;;;;;;;;;;;;8.84;74.26;99748.04;124828;1099;104169;-76
2022/04/23 03:48:24;;;;;;;;;;;;;;;8.86;73.84;99743.73;124862;1099;104313;-76
2022/04/23 03:50:54;;;;;;;;;;;;;;;8.90;73.90;99737.76;124739;1099;104159;-76
2022/04/23 03:53:24;;;;;;;;;;;;;;;8.93;74.60;99747.44;124912;1098;104272;-76
2022/04/23 03:55:54;;;;;;;;;;;;;;;8.97;73.04;99728.35;124918;1099;104163;-77
2022/04/23 03:58:23;;;;;;;;;;;;;;;8.98;74.62;99730.14;124979;1099;103360;-76
2022/04/23 04:00:54;;;;;;;;;;;;;;;8.99;74.88;99724.95;124977;1099;103007;-76
2022/04/23 04:03:24;;;;;;;;;;;;;;;9.02;74.72;99728.48;124936;1098;102276;-77
2022/04/23 04:05:55;;;;;;;;;;;;;;;9.06;74.24;99722.52;124880;1098;102702;-78
2022/04/23 04:08:25;;;;;;;;;;;;;;;9.09;74.04;99725.22;124935;1099;103172;-77
2022/04/23 04:10:55;;;;;;;;;;;;;;;9.14;73.93;99731.47;124943;1099;104169;-78
2022/04/23 04:13:25;;;;;;;;;;;;;;;9.16;74.03;99724.54;124956;1099;102749;-77
2022/04/23 04:15:54;;;;;;;;;;;;;;;9.23;73.69;99723.01;124832;1098;104188;-77
2022/04/23 04:18:24;;;;;;;;;;;;;;;9.27;74.27;99711.76;124896;1099;104159;-76
2022/04/23 04:20:55;;;;;;;;;;;;;;;9.32;73.53;99718.91;124801;1098;104188;-75
2022/04/23 04:23:26;;;;;;;;;;;;;;;9.37;74.81;99716.42;124874;1099;104245;-76
2022/04/23 04:25:55;;;;;;;;;;;;;;;9.43;73.68;99707.86;124901;1099;102877;-76
2022/04/23 04:28:26;;;;;;;;;;;;;;;9.48;73.49;99701.02;124781;1099;104153;-75
2022/04/23 04:33:44;;;;;;;;;;;;;;;9.61;74.07;99703.09;124861;1099;104252;-77
2022/04/23 04:36:14;;;;;;;;;;;;;;;9.67;73.26;99697.14;125035;1099;102804;-77
2022/04/23 04:38:44;;;;;;;;;;;;;;;9.72;73.72;99695.52;125004;1099;104261;-76
2022/04/23 04:41:14;;;;;;;;;;;;;;;9.79;73.34;99696.59;124864;1099;102797;-78
2022/04/23 04:43:44;;;;;;;;;;;;;;;9.86;72.73;99699.41;125006;1099;102263;-78
2022/04/23 04:46:15;;;;;;;;;;;;;;;9.89;73.68;99696.87;124880;1099;104402;-78
2022/04/23 04:48:46;;;;;;;;;;;;;;;9.92;72.73;99690.80;124911;1099;104274;-78
2022/04/23 04:51:16;;;;;;;;;;;;;;;9.98;73.25;99695.32;124905;1099;102101;-79
2022/04/23 04:53:46;;;;;;;;;;;;;;;10.06;72.33;99684.16;124910;1097;104353;-76
2022/04/23 04:56:16;;;;;;;;;;;;;;;10.13;72.90;99684.31;124913;1098;104996;-78
2022/04/23 04:58:47;;;;;;;;;;;;;;;10.22;72.39;99687.16;124925;1099;104396;-78
2022/04/23 05:01:17;;;;;;;;;;;;;;;10.28;72.29;99686.43;124933;1099;102244;-77
2022/04/23 05:03:47;;;;;;;;;;;;;;;10.35;72.06;99683.15;124779;1099;104262;-77
2022/04/23 05:06:17;;;;;;;;;;;;;;;10.41;72.13;99672.80;124848;1099;102771;-77
2022/04/23 05:08:47;;;;;;;;;;;;;;;10.51;71.68;99681.76;124868;1099;104278;-77
2022/04/23 05:11:17;;;;;;;;;;;;;;;10.57;71.80;99680.15;124926;1099;102481;-78
2022/04/23 05:13:48;;;;;;;;;;;;;;;10.66;71.26;99668.98;126484;1098;104294;-77
2022/04/23 05:16:20;;;;;;;;;;;;;;;10.75;71.10;99671.81;124959;1099;104236;-77
2022/04/23 05:18:51;;;;;;;;;;;;;;;10.79;71.09;99663.13;124964;1099;104204;-79
2022/04/23 05:21:20;;;;;;;;;;;;;;;10.94;71.07;99673.08;124895;1099;104304;-77
2022/04/23 05:23:51;;;;;;;;;;;;;;;11.04;70.71;99676.77;124915;1099;109410;-77
2022/04/23 05:26:21;;;;;;;;;;;;;;;11.15;70.79;99677.88;124947;1099;102740;-77
2022/04/23 05:28:52;;;;;;;;;;;;;;;11.25;70.68;99681.59;124927;1098;104169;-78
2022/04/23 05:31:23;;;;;;;;;;;;;;;11.37;70.45;99675.67;124910;1099;101908;-76
2022/04/23 05:33:54;;;;;;;;;;;;;;;11.47;70.05;99682.88;124893;1099;102765;-76
2022/04/23 05:36:25;;;;;;;;;;;;;;;11.56;69.58;99670.77;124961;1099;104178;-77
2022/04/23 05:38:55;;;;;;;;;;;;;;;11.62;69.09;99676.13;124989;1097;102851;-78
2022/04/23 05:41:25;;;;;;;;;;;;;;;11.71;69.40;99671.05;124961;1099;104306;-77
2022/04/23 05:43:55;;;;;;;;;;;;;;;11.78;68.98;99659.80;124881;1098;104217;-76
2022/04/23 05:46:24;;;;;;;;;;;;;;;11.84;68.64;99665.16;125050;1099;102428;-76
2022/04/23 05:48:54;;;;;;;;;;;;;;;11.91;68.72;99666.14;124899;1099;104354;-76
2022/04/23 05:51:24;;;;;;;;;;;;;;;11.97;67.96;99666.27;124916;1099;102924;-76
2022/04/23 05:53:54;;;;;;;;;;;;;;;12.07;68.32;99648.02;124938;1099;104342;-76
2022/04/23 05:56:25;;;;;;;;;;;;;;;12.19;68.76;99662.23;124894;1099;104165;-76
2022/04/23 05:58:55;;;;;;;;;;;;;;;12.27;68.33;99656.22;124990;1099;104238;-76
2022/04/23 06:01:25;;;;;;;;;;;;;;;12.35;67.74;99659.84;124875;1099;104166;-76
2022/04/23 06:03:54;;;;;;;;;;;;;;;12.41;67.34;99639.77;125051;1099;104175;-76
2022/04/23 06:06:25;;;;;;;;;;;;;;;12.50;67.67;99649.55;124871;1099;102916;-76
2022/04/23 06:08:56;;;;;;;;;;;;;;;12.57;66.22;99656.68;124853;1099;102644;-76
2022/04/23 06:11:26;;;;;;;;;;;;;;;12.67;67.45;99652.42;124865;1099;104240;-76
2022/04/23 06:13:58;;;;;;;;;;;;;;;12.70;66.36;99641.94;124927;1099;104206;-76
2022/04/23 06:16:28;;;;;;;;;;;;;;;12.77;66.45;99641.13;124948;1099;102277;-78
2022/04/23 06:18:58;;;;;;;;;;;;;;;12.87;66.56;99644.78;124906;1097;104198;-76
2022/04/23 06:21:28;;;;;;;;;;;;;;;12.95;65.77;99634.35;124861;1099;104274;-77
2022/04/23 06:23:58;;;;;;;;;;;;;;;13.06;65.79;99634.48;124862;1098;104163;-76
2022/04/23 06:26:28;;;;;;;;;;;;;;;13.16;66.32;99623.16;125008;1099;102768;-77
2022/04/23 06:28:58;;;;;;;;;;;;;;;13.24;64.71;99621.48;124898;1099;104319;-77
2022/04/23 06:31:29;;;;;;;;;;;;;;;13.37;65.36;99624.29;124919;1099;104341;-76
2022/04/23 06:34:01;;;;;;;;;;;;;;;13.51;65.24;99622.70;124841;1099;104268;-79
2022/04/23 06:36:31;;;;;;;;;;;;;;;13.63;64.24;99622.82;124877;1099;103461;-78
2022/04/23 06:39:01;;;;;;;;;;;;;;;13.79;63.63;99622.92;124849;1099;102165;-77
2022/04/23 06:41:31;;;;;;;;;;;;;;;13.96;62.60;99630.98;124455;1099;104210;-78
2022/04/23 06:44:01;;;;;;;;;;;;;;;14.10;63.43;99623.17;124789;1099;104220;-77
2022/04/23 06:46:31;;;;;;;;;;;;;;;14.21;62.08;99616.24;124845;1099;102319;-76
2022/04/23 06:49:05;;;;;;;;;;;;;;;14.30;60.90;99605.72;124485;1099;102820;-77
2022/04/23 06:51:37;;;;;;;;;;;;;;;14.39;60.72;99595.22;124791;1099;104278;-76
2022/04/23 06:54:06;;;;;;;;;;;;;;;14.53;60.20;99597.94;124837;1099;104733;-76
2022/04/23 06:56:37;;;;;;;;;;;;;;;14.63;58.97;99579.53;124885;1099;104230;-77
2022/04/23 06:59:06;;;;;;;;;;;;;;;14.73;60.00;99595.42;124826;1099;104153;-76
2022/04/23 07:01:36;;;;;;;;;;;;;;;14.86;59.40;99598.12;124888;1099;104483;-77
2022/04/23 07:04:06;;;;;;;;;;;;;;;15.03;60.22;99591.13;124810;1099;101948;-77
2022/04/23 07:06:35;;;;;;;;;;;;;;;15.16;59.76;99585.88;124842;1099;104204;-76
2022/04/23 07:09:05;;;;;;;;;;;;;;;15.31;59.50;99585.91;124476;1099;102952;-76
2022/04/23 07:11:35;;;;;;;;;;;;;;;15.50;57.53;99570.08;124856;1099;102778;-76
2022/04/23 07:14:06;;;;;;;;;;;;;;;15.66;57.39;99565.67;124941;1099;104229;-77
2022/04/23 07:16:36;;;;;;;;;;;;;;;15.83;56.85;99555.12;124947;1099;104220;-77
2022/04/23 07:19:07;;;;;;;;;;;;;;;16.03;54.91;99549.81;124947;1099;104211;-76
2022/04/23 07:21:36;;;;;;;;;;;;;;;16.13;53.98;99546.27;124930;1099;102822;-77
2022/04/23 07:24:08;;;;;;;;;;;;;;;16.24;53.02;99541.83;124935;1099;104077;-77
2022/04/23 07:26:39;;;;;;;;;;;;;;;16.45;55.04;99543.51;124941;1099;104232;-77
2022/04/23 07:29:10;;;;;;;;;;;;;;;16.57;55.61;99541.72;124902;1099;102525;-76
2022/04/23 07:31:42;;;;;;;;;;;;;;;16.74;53.95;99531.06;124931;1099;103298;-77
2022/04/23 07:39:47;;;;;;;;;;;;;;;17.21;52.54;99528.14;124933;1099;104192;-77
2022/04/23 07:42:17;;;;;;;;;;;;;;;17.37;54.82;99533.33;124851;1098;102210;-77
2022/04/23 07:44:47;;;;;;;;;;;;;;;17.48;52.33;99534.13;124880;1099;104160;-77
2022/04/23 07:47:16;;;;;;;;;;;;;;;17.55;51.13;99522.58;124988;1099;104616;-77
2022/04/23 07:49:47;;;;;;;;;;;;;;;17.74;51.94;99523.30;124850;1099;104153;-76
2022/04/23 07:52:17;;;;;;;;;;;;;;;17.87;50.58;99517.88;124848;1098;104118;-77
2022/04/23 07:54:48;;;;;;;;;;;;;;;17.95;51.24;99508.98;124929;1099;104249;-77
2022/04/23 07:57:21;;;;;;;;;;;;;;;18.06;50.68;99516.84;124874;1099;104297;-76
2022/04/23 07:59:51;;;;;;;;;;;;;;;18.00;49.11;99503.63;125005;1099;104258;-78
2022/04/23 08:02:21;;;;;;;;;;;;;;;18.19;49.03;99506.09;124858;1099;104229;-76
2022/04/23 08:04:51;;;;;;;;;;;;;;;18.36;50.30;99505.89;124853;1099;102852;-77
2022/04/23 08:07:21;;;;;;;;;;;;;;;18.33;48.37;99491.73;125006;1099;103203;-77
2022/04/23 08:09:50;;;;;;;;;;;;;;;18.43;49.98;99504.91;125058;1099;102810;-77
2022/04/23 08:12:21;;;;;;;;;;;;;;;18.50;49.65;99509.25;124852;1099;104310;-77
2022/04/23 08:14:51;;;;;;;;;;;;;;;18.53;48.23;99509.22;124899;1099;104217;-77
2022/04/23 08:17:20;;;;;;;;;;;;;;;18.68;48.04;99490.42;124949;1099;102496;-77
2022/04/23 08:19:50;;;;;;;;;;;;;;;18.75;48.60;99501.84;124917;1099;104676;-77
2022/04/23 08:22:20;;;;;;;;;;;;;;;18.75;46.49;99499.17;125011;1099;104226;-78
2022/04/23 08:24:49;;;;;;;;;;;;;;;18.73;48.98;99500.98;124934;1099;102298;-77
2022/04/23 08:27:20;;;;;;;;;;;;;;;18.77;47.11;99491.19;124962;1099;104169;-76
2022/04/23 08:32:39;;;;;;;;;;;;;;;19.02;47.38;99491.73;124834;1099;104240;-76
2022/04/23 08:35:09;;;;;;;;;;;;;;;19.00;46.50;99483.78;124932;1099;102791;-76
2022/04/23 08:37:39;;;;;;;;;;;;;;;18.75;45.44;99472.60;124917;1099;104181;-77
2022/04/23 08:40:10;;;;;;;;;;;;;;;18.66;47.32;99478.91;124890;1099;104190;-76
2022/04/23 08:42:40;;;;;;;;;;;;;;;18.70;47.00;99490.40;125014;1099;104077;-77
2022/04/23 08:45:12;;;;;;;;;;;;;;;18.81;47.01;99487.59;124986;1099;102851;-76
2022/04/23 08:47:45;;;;;;;;;;;;;;;18.91;47.72;99491.89;124976;1098;102744;-77
2022/04/23 08:50:17;;;;;;;;;;;;;;;18.96;48.06;99492.69;124992;1099;104150;-77
2022/04/23 08:52:51;;;;;;;;;;;;;;;19.13;48.14;99486.26;125013;1099;104281;-78
2022/04/23 08:55:22;;;;;;;;;;;;;;;19.16;47.01;99480.89;124936;1099;104316;-77
2022/04/23 08:57:52;;;;;;;;;;;;;;;19.22;46.98;99473.69;124953;1099;102759;-77
2022/04/23 09:00:23;;;;;;;;;;;;;;;19.32;46.73;99474.44;124931;1099;104302;-77
2022/04/23 09:02:53;;;;;;;;;;;;;;;19.33;46.33;99470.85;124959;1099;102759;-78
2022/04/23 09:05:27;;;;;;;;;;;;;;;19.31;46.47;99464.69;125013;1099;101905;-77
2022/04/23 09:07:57;;;;;;;;;;;;;;;19.34;46.87;99456.66;124820;1099;104246;-76
2022/04/23 09:10:40;;;;;;;;;;;;;;;19.43;46.97;99460.06;125032;1099;104105;-78
2022/04/23 09:13:11;;;;;;;;;;;;;;;19.54;44.89;99448.34;125081;1099;104178;-77
2022/04/23 09:24:09;;;;;;;;;;;;;;;19.94;44.90;99428.10;124597;1099;104316;-77
2022/04/23 09:26:41;;;;;;;;;;;;;;;20.01;46.07;99429.75;125010;1099;102784;-77
2022/04/23 09:29:15;;;;;;;;;;;;;;;19.95;45.36;99427.20;125064;1099;104336;-76
2022/04/23 09:31:45;;;;;;;;;;;;;;;19.94;44.13;99430.77;124918;1099;104377;-76
2022/04/23 09:34:20;;;;;;;;;;;;;;;20.04;45.52;99427.03;124861;1099;104201;-77
2022/04/23 09:36:56;;;;;;;;;;;;;;;20.29;45.29;99437.17;124880;1099;104181;-78
2022/04/23 09:39:33;;;;;;;;;;;;;;;20.37;43.87;99423.70;124970;1099;104185;-77
2022/04/23 09:42:14;;;;;;;;;;;;;;;20.37;44.32;99429.89;124985;1099;102845;-77
2022/04/23 09:44:45;;;;;;;;;;;;;;;20.29;44.79;99429.19;125001;1099;104178;-77
2022/04/23 09:47:30;;;;;;;;;;;;;;;20.22;44.03;99430.21;124877;1099;104252;-77
2022/04/23 09:50:00;;;;;;;;;;;;;;;20.15;44.42;99434.80;124912;1099;104163;-77
2022/04/23 09:52:30;;;;;;;;;;;;;;;20.31;43.85;99439.81;125304;1099;102269;-77
2022/04/23 09:55:02;;;;;;;;;;;;;;;20.52;43.04;99430.45;124977;1098;104175;-78
2022/04/23 09:57:31;;;;;;;;;;;;;;;20.58;43.79;99417.86;124945;1099;102531;-77
2022/04/23 10:00:02;;;;;;;;;;;;;;;20.77;44.14;99428.14;124959;1099;102763;-77
2022/04/23 10:02:35;;;;;;;;;;;;;;;20.95;42.74;99416.18;124972;1099;104206;-78
2022/04/23 10:05:05;;;;;;;;;;;;;;;21.13;44.25;99420.17;124940;1098;104255;-78
2022/04/23 10:07:37;;;;;;;;;;;;;;;21.17;43.52;99414.72;124958;1099;104190;-77
2022/04/23 10:10:08;;;;;;;;;;;;;;;21.09;41.42;99416.70;124902;1099;104195;-77
2022/04/23 10:12:39;;;;;;;;;;;;;;;21.12;42.68;99419.30;125011;1099;102758;-78
2022/04/23 10:15:10;;;;;;;;;;;;;;;21.16;41.59;99420.09;124867;1098;104157;-77
2022/04/23 10:17:41;;;;;;;;;;;;;;;21.23;41.23;99413.70;124899;1099;102778;-77
2022/04/23 10:20:13;;;;;;;;;;;;;;;21.31;41.88;99411.70;125029;1099;102825;-77
2022/04/23 10:22:54;;;;;;;;;;;;;;;21.40;41.97;99409.73;124979;1097;104301;-77
2022/04/23 10:25:30;;;;;;;;;;;;;;;21.42;40.75;99395.42;125066;1099;102241;-76
2022/04/23 10:28:00;;;;;;;;;;;;;;;21.38;41.94;99404.44;124888;1099;104232;-77
2022/04/23 10:30:32;;;;;;;;;;;;;;;21.40;41.68;99396.39;124967;1099;104172;-77
2022/04/23 10:33:23;;;;;;;;;;;;;;;21.31;42.50;99405.50;124918;1099;104185;-77
2022/04/23 10:36:08;;;;;;;;;;;;;;;21.05;41.55;99398.16;125052;1099;103255;-77
2022/04/23 10:38:42;;;;;;;;;;;;;;;20.86;42.29;99405.73;124841;1099;104249;-78
2022/04/23 10:41:13;;;;;;;;;;;;;;;20.79;42.08;99410.34;125015;1099;104262;-77
2022/04/23 10:43:53;;;;;;;;;;;;;;;20.75;41.89;99405.98;124846;1099;104280;-77
2022/04/23 10:46:42;;;;;;;;;;;;;;;20.77;42.40;99410.38;125009;1099;102960;-77
2022/04/23 10:49:16;;;;;;;;;;;;;;;20.84;41.71;99403.10;124930;1099;104268;-77
2022/04/23 10:51:52;;;;;;;;;;;;;;;20.91;42.49;99395.83;125062;1099;104160;-78
2022/04/23 10:54:42;;;;;;;;;;;;;;;21.06;42.82;99392.78;125128;1099;102851;-77
2022/04/23 10:57:13;;;;;;;;;;;;;;;21.14;41.08;99381.92;125066;1099;104566;-77
2022/04/23 10:59:47;;;;;;;;;;;;;;;21.08;41.43;99393.61;125047;1099;103047;-77
2022/04/23 11:02:33;;;;;;;;;;;;;;;21.16;41.74;99404.98;125085;1099;101922;-76
2022/04/23 11:13:45;;;;;;;;;;;;;;;21.19;41.61;99394.24;125000;1098;104159;-77
2022/04/23 11:16:16;;;;;;;;;;;;;;;21.18;42.46;99404.95;124983;1099;102249;-76
2022/04/23 11:18:46;;;;;;;;;;;;;;;21.19;42.26;99404.91;125745;1098;101996;-77
2022/04/23 11:21:21;;;;;;;;;;;;;;;21.23;42.08;99399.50;125010;1099;102801;-77
2022/04/23 11:23:51;;;;;;;;;;;;;;;21.30;41.42;99399.30;125053;1098;104226;-77
2022/04/23 11:26:22;;;;;;;;;;;;;;;21.42;42.23;99398.09;124996;1099;104238;-76
2022/04/23 11:29:03;;;;;;;;;;;;;;;21.48;41.59;99394.39;126181;1098;104169;-77
2022/04/23 11:31:32;;;;;;;;;;;;;;;21.50;41.33;99388.14;125032;1099;104236;-77
2022/04/23 11:34:03;;;;;;;;;;;;;;;21.49;41.07;99390.85;125015;1099;102161;-77
2022/04/23 11:36:33;;;;;;;;;;;;;;;21.66;41.96;99393.03;124908;1099;102685;-78
2022/04/23 11:39:06;;;;;;;;;;;;;;;21.77;41.53;99388.30;125048;1099;104249;-79
2022/04/23 11:41:38;;;;;;;;;;;;;;;21.84;41.92;99392.52;124855;1099;104259;-78
2022/04/23 11:44:15;;;;;;;;;;;;;;;21.78;40.87;99382.02;124967;1099;104172;-77
2022/04/23 11:46:46;;;;;;;;;;;;;;;21.75;40.81;99384.77;125022;1099;102894;-77
2022/04/23 11:49:29;;;;;;;;;;;;;;;21.78;42.01;99382.02;125137;1099;104153;-77
2022/04/23 11:52:03;;;;;;;;;;;;;;;21.85;41.49;99378.27;125020;1099;118412;-78
2022/04/23 11:54:34;;;;;;;;;;;;;;;21.95;41.64;99369.99;125042;1099;104192;-77
2022/04/23 11:57:04;;;;;;;;;;;;;;;21.97;41.01;99371.70;125103;1099;104286;-78
2022/04/23 11:59:37;;;;;;;;;;;;;;;22.00;40.57;99370.72;125042;1099;104240;-77
2022/04/23 12:02:09;;;;;;;;;;;;;;;22.03;40.60;99370.63;124892;1099;102801;-77
2022/04/23 12:04:45;;;;;;;;;;;;;;;22.01;40.68;99365.34;124985;1099;102756;-77
2022/04/23 12:07:15;;;;;;;;;;;;;;;21.93;40.77;99362.02;124854;1098;102156;-77
2022/04/23 12:09:50;;;;;;;;;;;;;;;22.04;40.69;99359.91;125028;1099;104162;-78
2022/04/23 12:12:20;;;;;;;;;;;;;;;22.08;40.82;99366.05;125032;1099;103565;-79
2022/04/23 12:14:51;;;;;;;;;;;;;;;22.17;40.70;99370.23;125097;1099;104160;-78
2022/04/23 12:17:22;;;;;;;;;;;;;;;22.32;40.96;99366.27;124911;1099;103994;-78
2022/04/23 12:19:52;;;;;;;;;;;;;;;22.41;41.31;99363.31;125241;1098;102405;-77
2022/04/23 12:22:25;;;;;;;;;;;;;;;22.41;40.79;99366.84;124952;1099;104280;-77
2022/04/23 12:25:08;;;;;;;;;;;;;;;22.50;40.97;99368.37;125532;1099;104211;-77
2022/04/23 12:28:00;;;;;;;;;;;;;;;22.56;40.51;99365.50;125032;1099;102803;-78
2022/04/23 12:41:57;;;;;;;;;;;;;;;22.36;40.55;99354.53;124791;1099;104197;-77
2022/04/23 12:44:32;;;;;;;;;;;;;;;22.34;39.31;99348.38;125003;1099;102265;-77
2022/04/23 12:47:03;;;;;;;;;;;;;;;22.30;39.32;99336.91;124992;1099;104193;-78
2022/04/23 12:49:46;;;;;;;;;;;;;;;22.12;39.56;99340.98;124961;1099;104232;-77
2022/04/23 12:52:20;;;;;;;;;;;;;;;22.14;40.05;99336.45;125162;1099;104233;-78
2022/04/23 12:55:07;;;;;;;;;;;;;;;22.19;40.01;99334.54;124950;1099;104224;-77
2022/04/23 12:57:37;;;;;;;;;;;;;;;22.18;39.84;99330.11;125037;1099;104263;-77
2022/04/23 13:00:07;;;;;;;;;;;;;;;22.26;40.03;99329.87;124948;1099;104208;-78
2022/04/23 13:02:37;;;;;;;;;;;;;;;22.31;39.64;99330.63;124946;1099;102107;-78
2022/04/23 13:05:08;;;;;;;;;;;;;;;22.33;39.32;99322.56;125064;1099;104182;-77
2022/04/23 13:10:26;;;;;;;;;;;;;;;22.44;39.45;99317.78;124810;1099;104238;-77
2022/04/23 13:12:56;;;;;;;;;;;;;;;22.46;39.52;99313.25;124977;1098;104169;-76
2022/04/23 13:15:26;;;;;;;;;;;;;;;22.41;39.44;99313.39;125010;1099;104274;-77
2022/04/23 13:17:56;;;;;;;;;;;;;;;22.41;40.30;99312.53;124882;1099;104678;-77
2022/04/23 13:20:26;;;;;;;;;;;;;;;22.33;39.93;99309.20;124862;1099;103207;-77
2022/04/23 13:22:58;;;;;;;;;;;;;;;22.29;39.49;99310.21;124900;1099;104165;-78
2022/04/23 13:25:30;;;;;;;;;;;;;;;22.27;39.71;99307.59;124908;1098;104235;-77
2022/04/23 13:28:00;;;;;;;;;;;;;;;22.29;39.92;99299.52;125033;1097;102781;-77
2022/04/23 13:30:30;;;;;;;;;;;;;;;22.37;40.21;99309.06;124907;1099;102225;-79
2022/04/23 13:33:00;;;;;;;;;;;;;;;22.35;39.81;99307.37;124963;1099;104163;-79
2022/04/23 13:35:31;;;;;;;;;;;;;;;22.32;40.01;99304.80;124835;1099;102525;-78